Time;durP1;ratioP1;P1;durP2;ratioP2;P2;SDS_P1;SDS_P2;PMS_P1;PMS_P2;Temp;Humidity;BMP_temperature;BMP_pressure;BME280_temperature;BME280_humidity;BME280_pressure;Samples;Min_cycle;Max_cycle;Signal;HPM_P1;HPM_P2
2023/07/02 00:01:04;;;;;;;10.18;5.53;;;;;;;19.59;100.00;65036.56;5031589;28;20224;-57
2023/07/02 00:03:29;;;;;;;7.18;5.13;;;;;;;19.59;100.00;65041.69;5031497;28;20217;-58
2023/07/02 00:05:56;;;;;;;6.40;4.70;;;;;;;19.13;100.00;64990.88;5031536;28;20237;-57
2023/07/02 00:08:22;;;;;;;10.30;5.22;;;;;;;18.99;100.00;64972.84;5031793;28;20672;-57
2023/07/02 00:10:48;;;;;;;7.75;5.43;;;;;;;18.89;100.00;64964.38;5031523;28;20206;-59
2023/07/02 00:13:14;;;;;;;5.70;4.75;;;;;;;18.83;100.00;64955.19;5031829;28;20225;-61
2023/07/02 00:15:40;;;;;;;10.32;5.43;;;;;;;18.92;100.00;64965.69;5031623;28;20300;-61
2023/07/02 00:18:05;;;;;;;9.35;5.65;;;;;;;19.04;100.00;64981.50;5031638;28;20302;-61
2023/07/02 00:20:34;;;;;;;7.57;5.20;;;;;;;18.99;100.00;64973.41;5013683;28;20285;-59
2023/07/02 00:23:00;;;;;;;8.18;4.95;;;;;;;18.91;100.00;64966.59;5013581;28;20722;-56
2023/07/02 00:25:26;;;;;;;8.52;5.28;;;;;;;18.88;100.00;64963.84;5031337;28;20193;-60
2023/07/02 00:27:51;;;;;;;11.35;5.28;;;;;;;18.83;100.00;64952.66;5031583;28;20295;-60
2023/07/02 00:30:35;;;;;;;7.53;4.80;;;;;;;19.02;100.00;64976.75;5031184;28;20228;-56
2023/07/02 00:33:01;;;;;;;10.73;7.70;;;;;;;18.93;100.00;64963.69;5031282;28;20247;-56
2023/07/02 00:35:26;;;;;;;9.82;5.00;;;;;;;18.83;100.00;64955.19;5031183;28;20283;-57
2023/07/02 00:37:52;;;;;;;6.63;5.07;;;;;;;18.78;100.00;64949.69;5031275;28;20584;-57
2023/07/02 00:40:17;;;;;;;11.23;6.07;;;;;;;18.63;100.00;64935.69;5031012;28;20643;-57
2023/07/02 00:42:42;;;;;;;8.27;5.43;;;;;;;18.78;100.00;64949.69;5031313;28;20210;-59
2023/07/02 00:45:08;;;;;;;7.25;5.10;;;;;;;18.73;100.00;64944.72;5031031;28;20238;-58
2023/07/02 00:47:34;;;;;;;8.85;5.10;;;;;;;18.46;100.00;64911.84;5031326;28;20285;-59
2023/07/02 00:50:01;;;;;;;6.90;4.75;;;;;;;18.49;100.00;64920.25;5031079;28;20260;-57
2023/07/02 00:52:27;;;;;;;9.20;5.10;;;;;;;18.55;100.00;64922.31;5013325;28;20226;-57
2023/07/02 00:54:53;;;;;;;12.40;5.80;;;;;;;18.63;100.00;64936.25;5030750;28;20632;-57
2023/07/02 00:57:19;;;;;;;8.20;5.13;;;;;;;18.74;100.00;64948.41;5029900;28;20264;-58
2023/07/02 00:59:44;;;;;;;10.18;6.50;;;;;;;18.53;100.00;64925.22;5030697;28;20202;-57
2023/07/02 01:02:10;;;;;;;9.05;5.65;;;;;;;18.70;100.00;64940.88;5030716;28;20200;-57
2023/07/02 01:04:37;;;;;;;9.77;5.30;;;;;;;18.85;100.00;64960.53;5030582;28;20252;-57
2023/07/02 01:07:08;;;;;;;10.05;6.75;;;;;;;18.82;100.00;64951.56;5030662;28;20194;-57
2023/07/02 01:09:34;;;;;;;10.50;6.43;;;;;;;18.88;100.00;64963.84;5030667;28;20641;-61
2023/07/02 01:12:02;;;;;;;10.98;6.68;;;;;;;19.03;100.00;64979.81;5030463;28;20186;-62
2023/07/02 01:14:41;;;;;;;9.82;6.53;;;;;;;19.17;100.00;64992.72;5030821;28;20218;-61
2023/07/02 01:17:07;;;;;;;10.73;5.93;;;;;;;19.35;100.00;65012.06;5030751;28;20391;-61
2023/07/02 01:19:52;;;;;;;12.43;7.53;;;;;;;19.38;100.00;65015.94;5030767;28;20206;-60
2023/07/02 01:22:23;;;;;;;9.05;6.93;;;;;;;19.22;100.00;64998.81;5012770;28;20206;-61
2023/07/02 01:24:50;;;;;;;10.88;6.85;;;;;;;19.29;100.00;65006.53;5030395;28;20259;-57
2023/07/02 01:27:15;;;;;;;9.60;6.60;;;;;;;19.58;100.00;65037.47;5012783;28;20276;-61
2023/07/02 01:29:42;;;;;;;9.13;6.63;;;;;;;19.48;100.00;65023.88;5030485;28;20210;-61
2023/07/02 01:32:08;;;;;;;9.57;5.97;;;;;;;19.51;100.00;65030.31;5030055;28;20205;-60
2023/07/02 01:34:34;;;;;;;11.77;6.78;;;;;;;19.35;100.00;65012.63;5030387;28;20584;-61
2023/07/02 01:36:59;;;;;;;10.02;6.72;;;;;;;19.22;100.00;65001.38;5030534;28;20336;-58
2023/07/02 01:39:25;;;;;;;11.00;6.15;;;;;;;19.25;100.00;65002.09;5012452;28;20232;-58
2023/07/02 01:41:55;;;;;;;9.82;6.53;;;;;;;19.01;100.00;64972.50;5030445;28;20198;-59
2023/07/02 01:44:21;;;;;;;9.25;6.07;;;;;;;18.56;100.00;64928.53;5029503;28;20249;-58
2023/07/02 01:46:51;;;;;;;9.63;6.40;;;;;;;18.52;100.00;64923.56;5029055;28;20190;-59
2023/07/02 01:49:18;;;;;;;9.30;6.00;;;;;;;18.80;100.00;64957.00;5010673;28;20214;-59
2023/07/02 01:51:50;;;;;;;9.50;6.55;;;;;;;18.97;100.00;64971.22;5030215;28;20198;-59
2023/07/02 01:54:17;;;;;;;8.40;5.97;;;;;;;18.87;100.00;64959.63;5030180;28;20214;-59
2023/07/02 01:56:42;;;;;;;13.43;6.47;;;;;;;18.28;100.00;64895.63;5030013;28;20225;-57
2023/07/02 01:59:07;;;;;;;10.77;6.50;;;;;;;18.25;100.00;64891.75;5030337;28;20762;-58
2023/07/02 02:01:33;;;;;;;7.53;6.10;;;;;;;18.20;100.00;64886.78;5030061;28;20681;-58
2023/07/02 02:03:58;;;;;;;8.20;6.30;;;;;;;18.53;100.00;64922.66;5030189;28;20217;-59
2023/07/02 02:06:24;;;;;;;11.68;6.50;;;;;;;18.28;100.00;64895.63;5029980;28;20223;-58
2023/07/02 02:08:49;;;;;;;9.52;6.63;;;;;;;18.23;100.00;64892.66;5032529;28;20218;-57
2023/07/02 02:11:14;;;;;;;9.70;6.47;;;;;;;18.58;100.00;64928.19;5033376;28;20706;-57
2023/07/02 02:13:40;;;;;;;10.23;6.88;;;;;;;18.61;100.00;64931.50;5033257;28;20210;-58
2023/07/02 02:16:06;;;;;;;11.20;7.50;;;;;;;18.54;100.00;64923.78;5033225;28;20284;-58
2023/07/02 02:18:31;;;;;;;12.20;8.27;;;;;;;18.55;100.00;64919.75;5033156;28;20218;-58
2023/07/02 02:20:57;;;;;;;10.35;7.95;;;;;;;18.33;100.00;64900.59;5033221;28;20198;-58
2023/07/02 02:23:22;;;;;;;12.30;7.93;;;;;;;18.58;100.00;64928.19;5033347;28;20403;-58
2023/07/02 02:25:47;;;;;;;11.45;7.75;;;;;;;18.35;100.00;64903.34;5033009;28;20198;-58
2023/07/02 02:28:13;;;;;;;10.27;7.65;;;;;;;18.26;100.00;64893.41;5033205;28;20691;-58
2023/07/02 02:30:38;;;;;;;13.05;8.15;;;;;;;18.47;100.00;64912.94;5032840;28;20194;-58
2023/07/02 02:33:03;;;;;;;10.57;7.53;;;;;;;18.58;100.00;64930.19;5032958;28;20695;-57
2023/07/02 02:35:29;;;;;;;12.43;7.80;;;;;;;18.55;100.00;64927.41;5033208;28;20206;-58
2023/07/02 02:37:54;;;;;;;9.32;7.35;;;;;;;18.38;100.00;64908.66;5033011;28;20210;-56
2023/07/02 02:40:20;;;;;;;14.25;8.13;;;;;;;18.49;100.00;64917.69;5032816;28;20205;-61
2023/07/02 02:42:45;;;;;;;10.95;6.90;;;;;;;18.31;100.00;64896.38;5015102;28;20584;-58
2023/07/02 02:45:11;;;;;;;13.25;7.22;;;;;;;18.37;100.00;64905.00;5032824;28;20190;-58
2023/07/02 02:47:37;;;;;;;8.88;6.70;;;;;;;18.40;100.00;64908.84;5032707;28;20696;-58
2023/07/02 02:50:03;;;;;;;10.85;6.85;;;;;;;18.58;100.00;64930.75;5032664;28;20608;-58
2023/07/02 02:52:29;;;;;;;9.32;6.57;;;;;;;18.35;100.00;64905.34;5032583;28;20213;-58
2023/07/02 02:54:54;;;;;;;11.20;7.22;;;;;;;18.00;100.00;64864.19;5032675;28;20704;-59
2023/07/02 02:57:19;;;;;;;10.82;6.47;;;;;;;17.98;100.00;64862.53;5032726;28;20597;-60
2023/07/02 02:59:45;;;;;;;12.57;7.10;;;;;;;18.31;100.00;64901.50;5032881;28;20588;-60
2023/07/02 03:02:11;;;;;;;9.13;6.15;;;;;;;18.35;100.00;64902.78;5032332;28;20205;-60
2023/07/02 03:04:39;;;;;;;10.65;6.75;;;;;;;17.98;100.00;64861.97;5015055;28;20186;-57
2023/07/02 03:07:06;;;;;;;11.18;6.50;;;;;;;17.90;100.00;64856.25;5015195;28;20723;-57
2023/07/02 03:09:32;;;;;;;11.38;6.32;;;;;;;18.25;100.00;64894.31;5032629;28;20275;-57
2023/07/02 03:11:57;;;;;;;9.43;6.90;;;;;;;18.42;100.00;64913.06;5032363;28;20199;-62
2023/07/02 03:14:23;;;;;;;11.15;6.15;;;;;;;18.30;100.00;64897.81;5032327;28;20683;-60
2023/07/02 03:16:48;;;;;;;10.77;6.47;;;;;;;18.23;100.00;64889.56;5032386;28;20198;-60
2023/07/02 03:19:15;;;;;;;11.50;6.82;;;;;;;18.35;100.00;64903.34;5031631;28;20622;-57
2023/07/02 03:21:42;;;;;;;13.90;7.05;;;;;;;18.25;100.00;64892.31;5032290;28;20277;-62
2023/07/02 03:24:10;;;;;;;14.23;6.68;;;;;;;18.42;100.00;64910.53;5032175;28;20688;-62
2023/07/02 03:26:35;;;;;;;10.30;7.13;;;;;;;18.21;100.00;64887.91;5032205;28;20198;-57
2023/07/02 03:29:01;;;;;;;12.15;6.78;;;;;;;17.94;100.00;64855.56;5032462;28;20212;-58
2023/07/02 03:31:26;;;;;;;11.23;6.40;;;;;;;18.09;100.00;64874.69;5031958;28;20233;-57
2023/07/02 03:33:51;;;;;;;10.75;6.60;;;;;;;18.17;100.00;64883.50;5032214;28;20214;-56
2023/07/02 03:36:17;;;;;;;12.60;6.53;;;;;;;18.38;100.00;64906.09;5031994;28;20630;-56
2023/07/02 03:38:42;;;;;;;10.30;6.20;;;;;;;18.49;100.00;64918.25;5014356;28;20296;-59
2023/07/02 03:41:07;;;;;;;9.13;5.95;;;;;;;18.45;100.00;64913.84;5032072;28;20237;-57
2023/07/02 03:43:33;;;;;;;9.82;6.35;;;;;;;18.28;100.00;64895.09;5031872;28;20213;-58
2023/07/02 03:45:58;;;;;;;8.02;6.35;;;;;;;18.13;100.00;64879.09;5031799;28;20612;-57
2023/07/02 03:48:24;;;;;;;8.43;5.90;;;;;;;18.35;100.00;64903.34;5031739;28;20210;-57
2023/07/02 03:50:49;;;;;;;9.50;6.65;;;;;;;18.54;100.00;64926.34;5014244;28;20198;-58
2023/07/02 03:53:14;;;;;;;11.27;6.65;;;;;;;18.53;100.00;64922.09;5032015;28;20228;-58
2023/07/02 03:55:40;;;;;;;10.70;6.18;;;;;;;18.33;100.00;64903.13;5031692;28;20695;-58
2023/07/02 03:58:06;;;;;;;12.23;6.90;;;;;;;18.33;100.00;64903.69;5032019;28;20210;-58
2023/07/02 04:00:31;;;;;;;12.13;6.47;;;;;;;18.40;100.00;64910.88;5031632;28;20198;-56
2023/07/02 04:02:58;;;;;;;10.63;6.35;;;;;;;18.41;100.00;64909.97;5031622;28;20680;-57
2023/07/02 04:05:23;;;;;;;7.93;6.38;;;;;;;18.51;100.00;64919.91;5031775;28;20261;-58
2023/07/02 04:07:48;;;;;;;11.20;7.45;;;;;;;18.85;100.00;64957.41;5013796;28;20305;-57
2023/07/02 04:10:14;;;;;;;13.05;7.22;;;;;;;18.87;100.00;64960.16;5031790;28;20206;-58
2023/07/02 04:12:39;;;;;;;11.90;7.05;;;;;;;18.84;100.00;64961.44;5031667;28;20314;-59
2023/07/02 04:15:05;;;;;;;9.68;6.63;;;;;;;18.36;100.00;64906.44;5013668;28;20652;-58
2023/07/02 04:17:31;;;;;;;10.38;6.45;;;;;;;18.44;100.00;64915.84;5031363;28;20221;-58
2023/07/02 04:19:57;;;;;;;12.05;6.22;;;;;;;18.78;100.00;64950.25;5031476;28;20198;-58
2023/07/02 04:22:23;;;;;;;12.05;6.90;;;;;;;18.66;100.00;64939.00;5031449;28;20209;-58
2023/07/02 04:24:48;;;;;;;11.10;7.00;;;;;;;18.47;100.00;64916.03;5031292;28;20596;-58
2023/07/02 04:27:17;;;;;;;10.60;6.55;;;;;;;18.35;100.00;64905.91;5031139;28;20222;-58
2023/07/02 04:29:44;;;;;;;11.05;7.40;;;;;;;18.49;100.00;64917.69;5031239;28;20260;-58
2023/07/02 04:32:09;;;;;;;13.00;7.07;;;;;;;18.84;100.00;64953.75;5030923;28;20580;-58
2023/07/02 04:34:36;;;;;;;11.38;7.45;;;;;;;18.67;100.00;64938.09;5031115;28;20198;-59
2023/07/02 04:37:04;;;;;;;10.82;6.03;;;;;;;18.62;100.00;64929.50;5031232;28;20290;-60
2023/07/02 04:39:30;;;;;;;13.25;7.78;;;;;;;18.70;100.00;64941.44;5031102;28;20283;-57
2023/07/02 04:41:56;;;;;;;10.95;7.47;;;;;;;18.88;100.00;64960.72;5013256;28;20661;-58
2023/07/02 04:44:30;;;;;;;11.80;6.97;;;;;;;18.99;100.00;64975.41;5030898;28;20695;-60
2023/07/02 04:47:00;;;;;;;10.18;6.70;;;;;;;18.88;100.00;64963.28;5031014;28;20189;-59
2023/07/02 04:49:26;;;;;;;12.88;7.75;;;;;;;18.66;100.00;64939.00;5030792;28;20210;-58
2023/07/02 04:51:53;;;;;;;15.35;6.97;;;;;;;18.46;100.00;64914.41;5030841;28;20198;-58
2023/07/02 04:54:21;;;;;;;13.00;7.78;;;;;;;18.41;100.00;64909.97;5030801;28;20222;-59
2023/07/02 04:56:47;;;;;;;14.23;7.60;;;;;;;18.47;100.00;64916.03;5030877;28;20198;-58
2023/07/02 04:59:12;;;;;;;10.85;7.60;;;;;;;18.65;100.00;64935.34;5031220;28;20632;-61
2023/07/02 05:01:38;;;;;;;12.60;8.27;;;;;;;18.86;100.00;64955.97;5030899;28;20175;-61
2023/07/02 05:04:05;;;;;;;12.27;7.10;;;;;;;19.20;100.00;64998.59;5031113;28;20210;-57
2023/07/02 05:06:31;;;;;;;10.90;7.53;;;;;;;19.24;100.00;65001.00;5030720;28;20649;-57
2023/07/02 05:08:56;;;;;;;11.75;7.90;;;;;;;19.14;100.00;64989.97;5030955;28;20210;-61
2023/07/02 05:11:22;;;;;;;16.75;8.07;;;;;;;19.11;100.00;64986.09;5030645;28;20566;-61
2023/07/02 05:13:47;;;;;;;9.30;6.53;;;;;;;19.03;100.00;64977.28;5030655;28;20213;-61
2023/07/02 05:16:13;;;;;;;11.60;7.50;;;;;;;18.90;100.00;64962.94;5030672;28;20252;-58
2023/07/02 05:18:38;;;;;;;11.82;6.68;;;;;;;18.91;100.00;64964.03;5012812;28;20238;-57
2023/07/02 05:21:04;;;;;;;11.82;6.38;;;;;;;18.94;100.00;64967.91;5030653;28;20221;-58
2023/07/02 05:23:29;;;;;;;12.65;7.18;;;;;;;19.02;100.00;64976.19;5030957;28;20291;-60
2023/07/02 05:25:55;;;;;;;11.10;6.90;;;;;;;19.15;100.00;64991.06;5030561;28;20206;-61
2023/07/02 05:28:27;;;;;;;10.32;5.90;;;;;;;19.52;100.00;65028.84;5030772;28;20683;-60
2023/07/02 05:30:53;;;;;;;6.22;5.20;;;;;;;20.03;100.00;65087.16;5030804;28;20182;-61
2023/07/02 05:33:18;;;;;;;10.43;7.72;;;;;;;20.28;100.00;65114.78;5030702;28;20230;-58
2023/07/02 05:35:45;;;;;;;9.38;6.43;;;;;;;20.09;100.00;65094.34;5030523;28;20281;-58
2023/07/02 05:38:11;;;;;;;9.85;7.18;;;;;;;19.83;100.00;65063.06;5030600;28;20228;-58
2023/07/02 05:40:37;;;;;;;11.38;6.72;;;;;;;19.67;100.00;65047.41;5031189;28;20197;-57
2023/07/02 05:43:02;;;;;;;14.50;7.03;;;;;;;19.80;100.00;65062.31;5014171;28;20256;-58
2023/07/02 05:45:28;;;;;;;9.27;6.60;;;;;;;19.71;100.00;65052.38;5035658;28;20555;-57
2023/07/02 05:47:54;;;;;;;11.45;6.97;;;;;;;19.64;100.00;65041.53;5034075;28;20210;-57
2023/07/02 05:50:20;;;;;;;11.27;7.40;;;;;;;19.58;100.00;65038.03;5033662;28;20217;-58
2023/07/02 05:52:46;;;;;;;13.02;7.90;;;;;;;19.64;100.00;65044.09;5032561;28;21372;-59
2023/07/02 05:55:12;;;;;;;14.25;8.02;;;;;;;19.91;100.00;65071.34;5032563;28;20194;-58
2023/07/02 05:57:40;;;;;;;10.73;7.50;;;;;;;20.29;100.00;65115.34;5032241;28;20218;-59
2023/07/02 06:00:06;;;;;;;14.45;7.70;;;;;;;20.70;100.00;65161.22;5015871;28;20259;-62
2023/07/02 06:02:32;;;;;;;13.57;9.75;;;;;;;20.85;100.00;65177.81;5014547;28;20246;-58
2023/07/02 06:04:57;;;;;;;15.23;9.18;;;;;;;20.55;100.00;65141.53;5033574;28;20253;-59
2023/07/02 06:07:25;;;;;;;15.02;8.43;;;;;;;20.87;100.00;65179.47;5033478;28;20603;-59
2023/07/02 06:09:50;;;;;;;17.33;9.95;;;;;;;20.87;100.00;65179.47;5032142;28;20202;-58
2023/07/02 06:12:16;;;;;;;13.40;8.45;;;;;;;20.93;100.00;65183.53;5032590;28;20210;-63
2023/07/02 06:14:42;;;;;;;17.02;8.63;;;;;;;20.97;100.00;65185.38;5032884;28;20295;-62
2023/07/02 06:17:08;;;;;;;12.68;8.48;;;;;;;21.14;100.00;65211.34;5033465;28;20202;-59
2023/07/02 06:19:34;;;;;;;13.82;8.25;;;;;;;21.24;100.00;65217.84;5015792;28;20202;-59
2023/07/02 06:21:59;;;;;;;11.00;6.38;;;;;;;21.29;100.00;65223.34;5033323;28;20198;-58
2023/07/02 06:24:25;;;;;;;11.35;7.20;;;;;;;21.35;100.00;65232.56;5033274;28;20595;-59
2023/07/02 06:26:50;;;;;;;10.48;7.10;;;;;;;21.35;100.00;65229.97;5033283;28;20626;-60
2023/07/02 06:29:16;;;;;;;9.77;6.47;;;;;;;21.11;100.00;65203.44;5033503;28;20264;-59
2023/07/02 06:31:41;;;;;;;12.50;7.05;;;;;;;21.08;100.00;65199.59;5033240;28;20213;-59
2023/07/02 06:34:08;;;;;;;13.65;7.40;;;;;;;20.60;100.00;65147.06;5032908;28;20218;-59
2023/07/02 06:36:34;;;;;;;12.80;7.78;;;;;;;20.45;100.00;65131.03;5015744;28;20267;-59
2023/07/02 06:38:59;;;;;;;12.52;7.57;;;;;;;20.63;100.00;65150.91;5033345;28;20226;-59
2023/07/02 06:41:25;;;;;;;12.10;8.38;;;;;;;20.35;100.00;65121.97;5032788;28;20205;-59
2023/07/02 06:43:50;;;;;;;16.52;7.70;;;;;;;20.38;100.00;65122.75;5033003;28;20300;-59
2023/07/02 06:46:16;;;;;;;11.60;7.50;;;;;;;20.21;100.00;65106.50;5032988;28;20212;-59
2023/07/02 06:48:41;;;;;;;23.52;12.38;;;;;;;20.53;100.00;65141.88;5032790;28;20297;-60
2023/07/02 06:51:07;;;;;;;10.45;7.03;;;;;;;20.61;100.00;65148.16;5032868;28;20202;-58
2023/07/02 06:53:33;;;;;;;12.63;8.48;;;;;;;20.52;100.00;65140.78;5032521;28;20225;-58
2023/07/02 06:55:58;;;;;;;12.52;8.57;;;;;;;20.52;100.00;65138.22;5032328;28;20232;-56
2023/07/02 06:58:24;;;;;;;9.75;6.72;;;;;;;20.61;100.00;65148.72;5033015;28;20687;-57
2023/07/02 07:00:49;;;;;;;10.40;6.80;;;;;;;20.54;100.00;65140.97;5032638;28;20598;-57
2023/07/02 07:03:16;;;;;;;11.82;6.43;;;;;;;20.74;100.00;65162.53;5032940;28;20693;-63
2023/07/02 07:05:48;;;;;;;13.70;6.82;;;;;;;20.56;100.00;65143.19;5032833;28;20194;-57
2023/07/02 07:08:13;;;;;;;9.25;6.20;;;;;;;20.67;100.00;65152.78;5032822;28;20241;-63
2023/07/02 07:10:39;;;;;;;10.20;6.85;;;;;;;20.79;100.00;65168.03;5015122;28;20660;-64
2023/07/02 07:13:05;;;;;;;10.73;7.13;;;;;;;20.67;100.00;65154.78;5032743;28;20276;-62
2023/07/02 07:15:35;;;;;;;10.77;7.55;;;;;;;20.83;100.00;65175.59;5032609;28;20734;-57
2023/07/02 07:18:01;;;;;;;18.08;12.23;;;;;;;20.89;100.00;65179.66;5049388;28;20221;-59
2023/07/02 07:20:27;;;;;;;18.13;11.50;;;;;;;20.76;100.00;65164.75;5052282;28;20198;-58
2023/07/02 07:22:52;;;;;;;20.38;13.13;;;;;;;20.79;100.00;65168.03;5052498;28;20316;-57
2023/07/02 07:25:17;;;;;;;11.80;7.15;;;;;;;20.98;100.00;65191.63;5052194;28;20198;-60
2023/07/02 07:27:43;;;;;;;14.98;10.32;;;;;;;20.92;100.00;65185.00;5052148;28;20237;-59
2023/07/02 07:30:09;;;;;;;11.05;7.80;;;;;;;20.76;100.00;65164.75;5047543;28;20189;-59
2023/07/02 07:32:34;;;;;;;12.77;8.07;;;;;;;20.67;100.00;65157.91;5032174;28;20210;-59
2023/07/02 07:35:00;;;;;;;10.45;6.93;;;;;;;20.61;100.00;65148.16;5031635;28;20272;-58
2023/07/02 07:37:25;;;;;;;11.05;7.15;;;;;;;20.28;100.00;65112.25;5024324;28;20301;-59
2023/07/02 07:39:51;;;;;;;12.07;6.68;;;;;;;20.38;100.00;65125.84;5032035;28;20268;-62
2023/07/02 07:42:19;;;;;;;11.70;8.30;;;;;;;20.54;100.00;65143.00;5032214;28;20644;-62
2023/07/02 07:44:45;;;;;;;11.25;7.40;;;;;;;20.56;100.00;65143.19;5032173;28;20222;-58
2023/07/02 07:47:11;;;;;;;12.15;7.07;;;;;;;20.66;100.00;65153.69;5032011;28;20220;-59
2023/07/02 07:49:36;;;;;;;11.38;7.93;;;;;;;20.68;100.00;65155.91;5042396;28;20280;-60
2023/07/02 07:52:03;;;;;;;14.25;7.43;;;;;;;20.64;100.00;65154.03;5051796;28;20211;-59
2023/07/02 07:54:29;;;;;;;8.50;6.82;;;;;;;20.69;100.00;65157.00;5051711;28;20233;-59
2023/07/02 07:56:54;;;;;;;12.68;7.53;;;;;;;20.58;100.00;65144.84;5051549;28;20732;-59
2023/07/02 07:59:21;;;;;;;9.85;7.00;;;;;;;20.52;100.00;65141.31;5032629;28;20268;-60
2023/07/02 08:01:46;;;;;;;38.00;26.08;;;;;;;20.79;100.00;65168.03;5031675;28;20253;-61
2023/07/02 08:04:12;;;;;;;10.27;7.53;;;;;;;20.94;100.00;65184.63;5031900;28;20214;-57
2023/07/02 08:06:38;;;;;;;11.32;6.47;;;;;;;20.84;100.00;65171.59;5031422;28;20206;-59
2023/07/02 08:09:03;;;;;;;14.75;8.20;;;;;;;20.93;100.00;65186.66;5016850;28;20217;-63
2023/07/02 08:11:29;;;;;;;10.63;7.35;;;;;;;21.27;100.00;65223.69;5050401;28;20729;-57
2023/07/02 08:13:54;;;;;;;11.02;7.38;;;;;;;21.49;100.00;65244.94;5051432;28;20224;-59
2023/07/02 08:16:19;;;;;;;9.88;6.38;;;;;;;21.38;100.00;65233.31;5051705;28;20207;-57
2023/07/02 08:18:45;;;;;;;10.13;6.80;;;;;;;21.53;100.00;65252.47;5033380;28;20209;-57
2023/07/02 08:21:11;;;;;;;19.13;12.88;;;;;;;21.68;100.00;65266.50;5051285;28;20228;-58
2023/07/02 08:23:37;;;;;;;9.25;6.57;;;;;;;21.88;100.00;65285.53;5051830;28;20217;-58
2023/07/02 08:26:02;;;;;;;8.27;6.07;;;;;;;21.92;100.00;65292.50;5038705;28;20198;-58
2023/07/02 08:28:28;;;;;;;12.38;7.07;;;;;;;21.97;100.00;65297.50;5042617;28;20266;-57
2023/07/02 08:30:54;;;;;;;10.02;7.13;;;;;;;21.89;100.00;65291.22;5036509;28;20577;-62
2023/07/02 08:33:20;;;;;;;9.18;6.75;;;;;;;22.03;100.00;65302.13;5037908;28;20264;-62
2023/07/02 08:35:46;;;;;;;9.57;6.40;;;;;;;22.14;100.00;65318.88;5031594;28;20212;-59
2023/07/02 08:38:11;;;;;;;8.25;6.43;;;;;;;22.25;100.00;65326.47;5051020;28;20220;-59
2023/07/02 08:40:36;;;;;;;9.88;6.43;;;;;;;22.38;100.00;65343.41;5051292;28;20654;-58
2023/07/02 08:43:02;;;;;;;7.68;6.00;;;;;;;22.23;96.83;65326.81;5033651;28;20722;-60
2023/07/02 08:45:28;;;;;;;9.77;6.03;;;;;;;22.41;97.68;65346.75;5030944;28;20206;-58
2023/07/02 08:47:56;;;;;;;7.38;5.10;;;;;;;22.53;95.01;65360.03;5031237;28;20210;-59
2023/07/02 08:50:22;;;;;;;9.27;5.97;;;;;;;22.26;94.57;65330.13;5030973;28;20206;-62
2023/07/02 08:52:48;;;;;;;9.82;5.53;;;;;;;22.27;96.92;65330.69;5030919;28;20214;-61
2023/07/02 08:55:13;;;;;;;7.97;5.30;;;;;;;22.37;97.79;65339.19;5030927;28;20581;-57
2023/07/02 08:57:42;;;;;;;7.28;4.85;;;;;;;22.28;88.06;65332.34;5031016;28;20213;-62
2023/07/02 09:00:11;;;;;;;12.32;8.73;;;;;;;22.50;91.91;65356.16;5031124;28;20186;-61
2023/07/02 09:02:36;;;;;;;6.38;5.07;;;;;;;22.41;94.41;65349.31;5030872;28;20210;-61
2023/07/02 09:05:03;;;;;;;7.57;5.32;;;;;;;22.32;93.32;65339.34;5040159;28;20637;-62
2023/07/02 09:07:30;;;;;;;9.70;5.85;;;;;;;22.12;95.07;65314.09;5050769;28;20247;-60
2023/07/02 09:09:55;;;;;;;8.65;5.65;;;;;;;22.38;95.71;65343.41;5050677;28;20659;-57
2023/07/02 09:12:31;;;;;;;9.82;6.30;;;;;;;22.43;98.18;65351.53;5050668;28;20303;-57
2023/07/02 09:15:03;;;;;;;9.15;6.25;;;;;;;22.74;100.00;65382.19;5050899;28;20706;-58
2023/07/02 09:17:31;;;;;;;9.32;6.68;;;;;;;22.71;96.36;65378.88;5051440;28;20312;-58
2023/07/02 09:19:57;;;;;;;10.60;6.70;;;;;;;22.96;97.86;65407.13;5054061;28;20288;-60
2023/07/02 09:22:23;;;;;;;8.35;6.43;;;;;;;22.94;97.81;65404.91;5054024;28;20209;-57
2023/07/02 09:24:59;;;;;;;9.82;7.15;;;;;;;23.01;98.04;65412.09;5053982;28;20270;-59
2023/07/02 09:27:36;;;;;;;8.40;6.57;;;;;;;23.02;99.02;65413.78;5054085;28;20204;-58
2023/07/02 09:30:08;;;;;;;10.98;6.68;;;;;;;23.22;99.87;65437.94;5054092;28;20197;-61
2023/07/02 09:32:34;;;;;;;11.57;7.57;;;;;;;23.39;98.47;65453.66;5053918;28;20209;-60
2023/07/02 09:35:00;;;;;;;12.00;8.50;;;;;;;23.53;97.64;65469.75;5054075;28;20212;-58
2023/07/02 09:37:26;;;;;;;11.93;7.00;;;;;;;23.55;94.39;65471.41;5054056;28;20554;-57
2023/07/02 09:39:54;;;;;;;11.43;6.90;;;;;;;23.73;97.75;65491.91;5054029;28;20193;-56
2023/07/02 09:42:20;;;;;;;9.93;7.70;;;;;;;23.94;94.41;65514.59;5053909;28;20708;-60
2023/07/02 09:44:46;;;;;;;9.50;7.32;;;;;;;23.71;92.53;65486.56;5035976;28;20288;-60
2023/07/02 09:47:13;;;;;;;10.15;6.80;;;;;;;24.09;94.21;65531.84;5053582;28;20262;-58
2023/07/02 09:49:41;;;;;;;7.82;6.32;;;;;;;24.13;95.63;65536.25;5035861;28;20182;-57
2023/07/02 09:52:11;;;;;;;7.85;6.00;;;;;;;23.98;90.60;65517.03;5053781;28;20221;-58
2023/07/02 09:54:37;;;;;;;7.57;6.15;;;;;;;23.93;90.61;65513.50;5053777;28;20217;-58
2023/07/02 09:57:04;;;;;;;9.43;6.30;;;;;;;24.28;89.88;65554.91;5053858;28;20229;-63
2023/07/02 09:59:30;;;;;;;7.72;6.20;;;;;;;24.72;83.98;65601.16;5053556;28;20205;-61
2023/07/02 10:01:56;;;;;;;8.98;6.22;;;;;;;24.75;86.41;65601.34;5053635;28;20201;-60
2023/07/02 10:04:25;;;;;;;8.98;6.30;;;;;;;24.81;83.47;65610.59;5053634;28;20287;-59
2023/07/02 10:06:55;;;;;;;9.82;6.88;;;;;;;24.82;84.80;65611.69;5053469;28;20221;-62
2023/07/02 10:09:34;;;;;;;8.98;6.97;;;;;;;24.97;87.59;65628.34;5053289;28;20275;-57
2023/07/02 10:11:59;;;;;;;8.90;6.45;;;;;;;24.96;88.04;65627.22;5053364;28;20275;-59
2023/07/02 10:14:25;;;;;;;7.97;5.75;;;;;;;24.93;88.05;65621.88;5053180;28;20316;-63
2023/07/02 10:16:55;;;;;;;7.75;5.80;;;;;;;24.75;84.88;65604.47;5053470;28;20649;-58
2023/07/02 10:19:21;;;;;;;8.73;6.60;;;;;;;24.68;85.59;65596.16;5053247;28;20221;-57
2023/07/02 10:22:01;;;;;;;9.10;5.78;;;;;;;25.19;83.80;65652.19;5053373;28;20277;-59
2023/07/02 10:24:26;;;;;;;7.82;6.00;;;;;;;25.44;85.26;65679.97;5053030;28;20217;-57
2023/07/02 10:27:00;;;;;;;12.93;9.27;;;;;;;25.97;82.12;65738.25;5053195;28;20315;-58
2023/07/02 10:29:26;;;;;;;9.05;6.15;;;;;;;26.17;76.45;65761.03;5052960;28;20217;-58
2023/07/02 10:31:54;;;;;;;8.80;5.88;;;;;;;26.57;77.27;65802.88;5052926;28;20202;-57
2023/07/02 10:34:34;;;;;;;8.93;6.30;;;;;;;26.41;70.80;65787.69;5052885;28;20679;-58
2023/07/02 10:37:01;;;;;;;6.32;5.40;;;;;;;26.62;74.44;65807.91;5052843;28;20319;-57
2023/07/02 10:39:27;;;;;;;9.38;5.82;;;;;;;26.63;74.95;65806.97;5053131;28;20275;-58
2023/07/02 10:41:52;;;;;;;7.68;5.10;;;;;;;26.83;75.72;65830.69;5053070;28;20284;-58
2023/07/02 10:44:17;;;;;;;5.90;4.90;;;;;;;26.59;70.48;65802.53;5052966;28;20224;-58
2023/07/02 10:46:47;;;;;;;8.75;5.60;;;;;;;26.81;69.33;65826.44;5035027;28;20201;-59
2023/07/02 10:49:14;;;;;;;10.93;5.65;;;;;;;27.28;68.94;65881.28;5053101;28;20213;-59
2023/07/02 10:51:39;;;;;;;8.25;5.22;;;;;;;27.59;69.60;65919.81;5052724;28;20197;-61
2023/07/02 10:54:05;;;;;;;8.57;5.07;;;;;;;27.71;63.07;65928.00;5052448;28;20223;-61
2023/07/02 10:56:31;;;;;;;8.95;7.07;;;;;;;27.83;66.66;65938.75;5035057;28;20228;-57
2023/07/02 10:58:57;;;;;;;11.30;8.02;;;;;;;27.82;63.19;65940.78;5052517;28;20296;-58
2023/07/02 11:01:30;;;;;;;13.23;8.50;;;;;;;27.49;62.52;65901.50;5052614;28;20379;-58
2023/07/02 11:04:00;;;;;;;12.98;11.00;;;;;;;27.59;64.90;65917.81;5052976;28;20288;-58
2023/07/02 11:06:32;;;;;;;8.13;5.68;;;;;;;27.49;64.46;65906.69;5034784;28;20201;-62
2023/07/02 11:08:58;;;;;;;6.95;5.53;;;;;;;27.73;60.47;65930.78;5052768;28;20213;-59
2023/07/02 11:11:24;;;;;;;8.02;5.13;;;;;;;27.87;64.31;65946.34;5052469;28;20240;-58
2023/07/02 11:13:52;;;;;;;9.32;6.95;;;;;;;27.96;62.27;65958.97;5052489;28;20260;-61
2023/07/02 11:16:24;;;;;;;6.28;4.65;;;;;;;27.51;62.81;65906.31;5052342;28;20201;-59
2023/07/02 11:18:50;;;;;;;6.95;5.43;;;;;;;28.08;59.42;65969.16;5052345;28;20228;-60